sensor_id;sensor_type;location;lat;lon;timestamp;P1;durP1;ratioP1;P2;durP2;ratioP2
40122;SDS011;25832;45.490;4.912;2022-09-13T00:00:42;5.25;;;4.72;;
40122;SDS011;25832;45.490;4.912;2022-09-13T00:03:09;7.90;;;4.68;;
40122;SDS011;25832;45.490;4.912;2022-09-13T00:05:36;6.85;;;4.50;;
40122;SDS011;25832;45.490;4.912;2022-09-13T00:08:02;5.88;;;4.32;;
40122;SDS011;25832;45.490;4.912;2022-09-13T00:10:29;8.93;;;4.43;;
40122;SDS011;25832;45.490;4.912;2022-09-13T00:12:58;7.25;;;4.50;;
40122;SDS011;25832;45.490;4.912;2022-09-13T00:15:24;11.38;;;5.03;;
40122;SDS011;25832;45.490;4.912;2022-09-13T00:17:49;8.60;;;4.40;;
40122;SDS011;25832;45.490;4.912;2022-09-13T00:20:15;7.63;;;4.75;;
40122;SDS011;25832;45.490;4.912;2022-09-13T00:22:41;5.22;;;4.28;;
40122;SDS011;25832;45.490;4.912;2022-09-13T00:25:07;7.13;;;4.53;;
40122;SDS011;25832;45.490;4.912;2022-09-13T00:27:33;5.85;;;4.50;;
40122;SDS011;25832;45.490;4.912;2022-09-13T00:30:00;8.02;;;4.70;;
40122;SDS011;25832;45.490;4.912;2022-09-13T00:32:26;4.63;;;4.22;;
40122;SDS011;25832;45.490;4.912;2022-09-13T00:34:52;5.18;;;4.68;;
40122;SDS011;25832;45.490;4.912;2022-09-13T00:37:18;10.70;;;4.75;;
40122;SDS011;25832;45.490;4.912;2022-09-13T00:39:43;8.55;;;5.50;;
40122;SDS011;25832;45.490;4.912;2022-09-13T00:42:12;6.20;;;4.93;;
40122;SDS011;25832;45.490;4.912;2022-09-13T00:50:03;7.07;;;5.60;;
40122;SDS011;25832;45.490;4.912;2022-09-13T00:52:33;6.03;;;4.95;;
40122;SDS011;25832;45.490;4.912;2022-09-13T00:55:05;5.88;;;4.63;;
40122;SDS011;25832;45.490;4.912;2022-09-13T00:57:36;6.80;;;5.03;;
40122;SDS011;25832;45.490;4.912;2022-09-13T01:00:04;9.68;;;5.15;;
40122;SDS011;25832;45.490;4.912;2022-09-13T01:02:48;9.32;;;5.30;;
40122;SDS011;25832;45.490;4.912;2022-09-13T01:05:24;4.88;;;4.43;;
40122;SDS011;25832;45.490;4.912;2022-09-13T01:07:54;6.78;;;4.65;;
40122;SDS011;25832;45.490;4.912;2022-09-13T01:10:20;7.45;;;4.65;;
40122;SDS011;25832;45.490;4.912;2022-09-13T01:12:55;10.27;;;4.85;;
40122;SDS011;25832;45.490;4.912;2022-09-13T01:15:23;5.90;;;4.90;;
40122;SDS011;25832;45.490;4.912;2022-09-13T01:17:49;6.90;;;5.50;;
40122;SDS011;25832;45.490;4.912;2022-09-13T01:20:18;8.25;;;5.57;;
40122;SDS011;25832;45.490;4.912;2022-09-13T01:29:17;9.27;;;5.55;;
40122;SDS011;25832;45.490;4.912;2022-09-13T01:35:11;6.22;;;5.07;;
40122;SDS011;25832;45.490;4.912;2022-09-13T01:37:56;6.72;;;5.00;;
40122;SDS011;25832;45.490;4.912;2022-09-13T01:45:39;4.85;;;4.22;;
40122;SDS011;25832;45.490;4.912;2022-09-13T01:48:53;6.55;;;5.07;;
40122;SDS011;25832;45.490;4.912;2022-09-13T01:51:33;7.57;;;4.72;;
40122;SDS011;25832;45.490;4.912;2022-09-13T01:54:12;5.78;;;4.88;;
40122;SDS011;25832;45.490;4.912;2022-09-13T01:57:43;6.13;;;4.93;;
40122;SDS011;25832;45.490;4.912;2022-09-13T02:00:19;7.85;;;4.97;;
40122;SDS011;25832;45.490;4.912;2022-09-13T02:07:41;5.85;;;4.13;;
40122;SDS011;25832;45.490;4.912;2022-09-13T02:10:30;7.70;;;4.85;;
40122;SDS011;25832;45.490;4.912;2022-09-13T02:13:00;6.82;;;4.63;;
40122;SDS011;25832;45.490;4.912;2022-09-13T02:15:48;9.68;;;4.55;;
40122;SDS011;25832;45.490;4.912;2022-09-13T02:19:01;7.63;;;4.80;;
40122;SDS011;25832;45.490;4.912;2022-09-13T02:21:11;7.80;;;4.75;;
40122;SDS011;25832;45.490;4.912;2022-09-13T02:23:55;7.97;;;4.53;;
40122;SDS011;25832;45.490;4.912;2022-09-13T02:26:27;6.93;;;5.10;;
40122;SDS011;25832;45.490;4.912;2022-09-13T02:28:55;8.77;;;5.32;;
40122;SDS011;25832;45.490;4.912;2022-09-13T02:31:34;14.68;;;5.10;;
40122;SDS011;25832;45.490;4.912;2022-09-13T02:34:08;6.88;;;4.82;;
40122;SDS011;25832;45.490;4.912;2022-09-13T02:36:49;8.63;;;5.53;;
40122;SDS011;25832;45.490;4.912;2022-09-13T02:39:20;7.32;;;5.47;;
40122;SDS011;25832;45.490;4.912;2022-09-13T02:42:11;5.03;;;4.50;;
40122;SDS011;25832;45.490;4.912;2022-09-13T02:52:49;7.38;;;4.95;;
40122;SDS011;25832;45.490;4.912;2022-09-13T02:55:28;5.70;;;5.18;;
40122;SDS011;25832;45.490;4.912;2022-09-13T03:00:27;10.85;;;5.45;;
40122;SDS011;25832;45.490;4.912;2022-09-13T03:02:53;6.00;;;5.13;;
40122;SDS011;25832;45.490;4.912;2022-09-13T03:05:20;8.98;;;5.10;;
40122;SDS011;25832;45.490;4.912;2022-09-13T03:07:46;9.25;;;5.18;;
40122;SDS011;25832;45.490;4.912;2022-09-13T03:10:13;6.32;;;5.15;;
40122;SDS011;25832;45.490;4.912;2022-09-13T03:15:30;7.85;;;4.95;;
40122;SDS011;25832;45.490;4.912;2022-09-13T03:31:54;6.95;;;4.80;;
40122;SDS011;25832;45.490;4.912;2022-09-13T03:34:33;9.20;;;4.68;;
40122;SDS011;25832;45.490;4.912;2022-09-13T03:37:23;4.45;;;3.67;;
40122;SDS011;25832;45.490;4.912;2022-09-13T03:40:06;8.75;;;4.38;;
40122;SDS011;25832;45.490;4.912;2022-09-13T03:45:15;7.15;;;4.70;;
40122;SDS011;25832;45.490;4.912;2022-09-13T03:47:44;6.07;;;4.10;;
40122;SDS011;25832;45.490;4.912;2022-09-13T03:50:14;8.65;;;4.88;;
40122;SDS011;25832;45.490;4.912;2022-09-13T03:52:42;14.27;;;4.70;;
40122;SDS011;25832;45.490;4.912;2022-09-13T03:55:10;5.35;;;4.85;;
40122;SDS011;25832;45.490;4.912;2022-09-13T03:57:36;6.15;;;4.22;;
40122;SDS011;25832;45.490;4.912;2022-09-13T04:00:02;6.85;;;4.30;;
40122;SDS011;25832;45.490;4.912;2022-09-13T04:02:28;6.15;;;4.70;;
40122;SDS011;25832;45.490;4.912;2022-09-13T04:04:54;6.03;;;4.55;;
40122;SDS011;25832;45.490;4.912;2022-09-13T04:07:21;5.35;;;4.72;;
40122;SDS011;25832;45.490;4.912;2022-09-13T04:09:48;5.10;;;4.60;;
40122;SDS011;25832;45.490;4.912;2022-09-13T04:12:14;6.82;;;4.55;;
40122;SDS011;25832;45.490;4.912;2022-09-13T04:14:41;7.60;;;5.32;;
40122;SDS011;25832;45.490;4.912;2022-09-13T04:17:07;6.85;;;5.55;;
40122;SDS011;25832;45.490;4.912;2022-09-13T04:19:34;5.97;;;4.35;;
40122;SDS011;25832;45.490;4.912;2022-09-13T04:22:00;8.55;;;5.50;;
40122;SDS011;25832;45.490;4.912;2022-09-13T04:24:27;5.78;;;5.15;;
40122;SDS011;25832;45.490;4.912;2022-09-13T04:26:53;5.97;;;5.38;;
40122;SDS011;25832;45.490;4.912;2022-09-13T04:29:20;8.05;;;5.90;;
40122;SDS011;25832;45.490;4.912;2022-09-13T04:31:47;6.45;;;5.75;;
40122;SDS011;25832;45.490;4.912;2022-09-13T04:34:14;14.23;;;6.80;;
40122;SDS011;25832;45.490;4.912;2022-09-13T04:36:42;10.43;;;6.40;;
40122;SDS011;25832;45.490;4.912;2022-09-13T04:39:08;10.07;;;5.97;;
40122;SDS011;25832;45.490;4.912;2022-09-13T04:41:34;10.68;;;5.63;;
40122;SDS011;25832;45.490;4.912;2022-09-13T04:44:00;6.93;;;6.03;;
40122;SDS011;25832;45.490;4.912;2022-09-13T04:46:27;6.97;;;6.00;;
40122;SDS011;25832;45.490;4.912;2022-09-13T04:48:53;13.50;;;6.55;;
40122;SDS011;25832;45.490;4.912;2022-09-13T04:51:19;7.93;;;5.97;;
40122;SDS011;25832;45.490;4.912;2022-09-13T04:53:46;10.77;;;6.60;;
40122;SDS011;25832;45.490;4.912;2022-09-13T04:56:19;8.07;;;5.90;;
40122;SDS011;25832;45.490;4.912;2022-09-13T04:58:47;7.60;;;6.82;;
40122;SDS011;25832;45.490;4.912;2022-09-13T05:01:16;8.23;;;6.90;;
40122;SDS011;25832;45.490;4.912;2022-09-13T05:03:42;11.43;;;6.45;;
40122;SDS011;25832;45.490;4.912;2022-09-13T05:06:08;10.88;;;6.13;;
40122;SDS011;25832;45.490;4.912;2022-09-13T05:08:36;7.28;;;6.40;;
40122;SDS011;25832;45.490;4.912;2022-09-13T05:11:02;9.90;;;5.85;;
40122;SDS011;25832;45.490;4.912;2022-09-13T05:13:29;7.00;;;6.30;;
40122;SDS011;25832;45.490;4.912;2022-09-13T05:15:55;8.63;;;6.60;;
40122;SDS011;25832;45.490;4.912;2022-09-13T05:18:25;8.18;;;5.95;;
40122;SDS011;25832;45.490;4.912;2022-09-13T05:20:54;8.55;;;6.60;;
40122;SDS011;25832;45.490;4.912;2022-09-13T05:23:22;9.10;;;6.97;;
40122;SDS011;25832;45.490;4.912;2022-09-13T05:25:54;9.52;;;6.00;;
40122;SDS011;25832;45.490;4.912;2022-09-13T05:28:21;7.07;;;6.35;;
40122;SDS011;25832;45.490;4.912;2022-09-13T05:30:58;9.20;;;6.28;;
40122;SDS011;25832;45.490;4.912;2022-09-13T05:33:30;9.95;;;6.80;;
40122;SDS011;25832;45.490;4.912;2022-09-13T05:35:57;8.52;;;6.32;;
40122;SDS011;25832;45.490;4.912;2022-09-13T05:38:23;10.38;;;6.63;;
40122;SDS011;25832;45.490;4.912;2022-09-13T05:40:55;6.93;;;6.28;;
40122;SDS011;25832;45.490;4.912;2022-09-13T05:43:23;10.23;;;6.07;;
40122;SDS011;25832;45.490;4.912;2022-09-13T05:45:50;11.98;;;6.53;;
40122;SDS011;25832;45.490;4.912;2022-09-13T05:48:15;10.02;;;6.15;;
40122;SDS011;25832;45.490;4.912;2022-09-13T05:50:41;10.13;;;6.70;;
40122;SDS011;25832;45.490;4.912;2022-09-13T05:53:07;10.43;;;6.68;;
40122;SDS011;25832;45.490;4.912;2022-09-13T05:55:33;10.50;;;6.38;;
40122;SDS011;25832;45.490;4.912;2022-09-13T05:58:00;9.15;;;5.95;;
40122;SDS011;25832;45.490;4.912;2022-09-13T06:00:26;8.15;;;5.88;;
40122;SDS011;25832;45.490;4.912;2022-09-13T06:02:52;13.23;;;6.30;;
40122;SDS011;25832;45.490;4.912;2022-09-13T06:05:18;6.38;;;5.75;;
40122;SDS011;25832;45.490;4.912;2022-09-13T06:07:43;7.35;;;5.93;;
40122;SDS011;25832;45.490;4.912;2022-09-13T06:10:09;7.95;;;6.07;;
40122;SDS011;25832;45.490;4.912;2022-09-13T06:12:36;9.40;;;6.18;;
40122;SDS011;25832;45.490;4.912;2022-09-13T06:15:02;8.20;;;6.07;;
40122;SDS011;25832;45.490;4.912;2022-09-13T06:17:28;8.18;;;6.10;;
40122;SDS011;25832;45.490;4.912;2022-09-13T06:19:54;15.00;;;6.65;;
40122;SDS011;25832;45.490;4.912;2022-09-13T06:22:21;10.40;;;5.90;;
40122;SDS011;25832;45.490;4.912;2022-09-13T06:24:47;8.20;;;5.97;;
40122;SDS011;25832;45.490;4.912;2022-09-13T06:27:12;6.65;;;5.53;;
40122;SDS011;25832;45.490;4.912;2022-09-13T06:29:38;7.40;;;6.15;;
40122;SDS011;25832;45.490;4.912;2022-09-13T06:32:04;7.60;;;5.85;;
40122;SDS011;25832;45.490;4.912;2022-09-13T06:34:29;7.00;;;5.53;;
40122;SDS011;25832;45.490;4.912;2022-09-13T06:36:55;7.10;;;5.43;;
40122;SDS011;25832;45.490;4.912;2022-09-13T06:39:21;9.32;;;5.70;;
40122;SDS011;25832;45.490;4.912;2022-09-13T06:41:47;6.50;;;5.57;;
40122;SDS011;25832;45.490;4.912;2022-09-13T06:44:12;9.65;;;6.15;;
40122;SDS011;25832;45.490;4.912;2022-09-13T06:46:38;8.20;;;5.97;;
40122;SDS011;25832;45.490;4.912;2022-09-13T06:49:05;11.10;;;6.03;;
40122;SDS011;25832;45.490;4.912;2022-09-13T06:51:33;8.18;;;5.45;;
40122;SDS011;25832;45.490;4.912;2022-09-13T06:54:00;8.98;;;4.90;;
40122;SDS011;25832;45.490;4.912;2022-09-13T06:56:28;6.18;;;4.43;;
40122;SDS011;25832;45.490;4.912;2022-09-13T06:58:57;5.88;;;5.28;;
40122;SDS011;25832;45.490;4.912;2022-09-13T07:01:34;7.20;;;4.68;;
40122;SDS011;25832;45.490;4.912;2022-09-13T07:04:07;8.95;;;5.32;;
40122;SDS011;25832;45.490;4.912;2022-09-13T07:06:36;6.15;;;5.00;;
40122;SDS011;25832;45.490;4.912;2022-09-13T07:09:04;5.10;;;4.40;;
40122;SDS011;25832;45.490;4.912;2022-09-13T07:11:32;8.88;;;5.10;;
40122;SDS011;25832;45.490;4.912;2022-09-13T07:14:00;7.25;;;4.28;;
40122;SDS011;25832;45.490;4.912;2022-09-13T07:16:30;9.55;;;4.60;;
40122;SDS011;25832;45.490;4.912;2022-09-13T07:19:01;8.27;;;4.32;;
40122;SDS011;25832;45.490;4.912;2022-09-13T07:21:30;7.55;;;4.00;;
40122;SDS011;25832;45.490;4.912;2022-09-13T07:23:56;8.65;;;4.80;;
40122;SDS011;25832;45.490;4.912;2022-09-13T07:26:23;3.92;;;3.53;;
40122;SDS011;25832;45.490;4.912;2022-09-13T07:28:52;6.05;;;3.63;;
40122;SDS011;25832;45.490;4.912;2022-09-13T07:31:20;5.63;;;3.72;;
40122;SDS011;25832;45.490;4.912;2022-09-13T07:33:49;4.70;;;3.20;;
40122;SDS011;25832;45.490;4.912;2022-09-13T07:36:18;8.50;;;3.80;;
40122;SDS011;25832;45.490;4.912;2022-09-13T07:38:44;5.15;;;3.40;;
40122;SDS011;25832;45.490;4.912;2022-09-13T07:41:13;4.47;;;3.50;;
40122;SDS011;25832;45.490;4.912;2022-09-13T07:43:40;8.18;;;3.50;;
40122;SDS011;25832;45.490;4.912;2022-09-13T07:46:07;7.82;;;4.35;;
40122;SDS011;25832;45.490;4.912;2022-09-13T07:48:36;11.82;;;4.38;;
40122;SDS011;25832;45.490;4.912;2022-09-13T07:51:13;5.30;;;3.72;;
40122;SDS011;25832;45.490;4.912;2022-09-13T07:53:39;7.95;;;4.35;;
40122;SDS011;25832;45.490;4.912;2022-09-13T07:56:07;7.97;;;4.07;;
40122;SDS011;25832;45.490;4.912;2022-09-13T07:58:36;7.30;;;3.60;;
40122;SDS011;25832;45.490;4.912;2022-09-13T08:01:10;5.05;;;3.80;;
40122;SDS011;25832;45.490;4.912;2022-09-13T08:03:39;4.50;;;3.65;;
40122;SDS011;25832;45.490;4.912;2022-09-13T08:06:05;9.68;;;4.30;;
40122;SDS011;25832;45.490;4.912;2022-09-13T08:08:32;4.95;;;3.88;;
40122;SDS011;25832;45.490;4.912;2022-09-13T08:10:59;4.95;;;3.70;;
40122;SDS011;25832;45.490;4.912;2022-09-13T08:13:25;6.72;;;3.70;;
40122;SDS011;25832;45.490;4.912;2022-09-13T08:15:53;5.18;;;3.42;;
40122;SDS011;25832;45.490;4.912;2022-09-13T08:18:19;5.35;;;3.13;;
40122;SDS011;25832;45.490;4.912;2022-09-13T08:20:45;6.75;;;3.75;;
40122;SDS011;25832;45.490;4.912;2022-09-13T08:23:12;5.78;;;3.67;;
40122;SDS011;25832;45.490;4.912;2022-09-13T08:25:38;4.22;;;3.33;;
40122;SDS011;25832;45.490;4.912;2022-09-13T08:28:08;7.15;;;3.58;;
40122;SDS011;25832;45.490;4.912;2022-09-13T08:30:38;8.43;;;3.88;;
40122;SDS011;25832;45.490;4.912;2022-09-13T08:33:06;6.53;;;3.80;;
40122;SDS011;25832;45.490;4.912;2022-09-13T08:35:32;5.10;;;3.83;;
40122;SDS011;25832;45.490;4.912;2022-09-13T08:37:59;10.45;;;3.60;;
40122;SDS011;25832;45.490;4.912;2022-09-13T08:40:26;4.68;;;2.92;;
40122;SDS011;25832;45.490;4.912;2022-09-13T08:46:39;4.78;;;3.05;;
40122;SDS011;25832;45.490;4.912;2022-09-13T08:48:57;6.63;;;3.72;;
40122;SDS011;25832;45.490;4.912;2022-09-13T08:51:30;6.20;;;4.32;;
40122;SDS011;25832;45.490;4.912;2022-09-13T08:54:17;4.93;;;3.88;;
40122;SDS011;25832;45.490;4.912;2022-09-13T09:00:00;5.38;;;3.58;;
40122;SDS011;25832;45.490;4.912;2022-09-13T09:05:23;7.68;;;3.47;;
40122;SDS011;25832;45.490;4.912;2022-09-13T09:07:57;7.40;;;3.30;;
40122;SDS011;25832;45.490;4.912;2022-09-13T09:10:28;8.90;;;3.33;;
40122;SDS011;25832;45.490;4.912;2022-09-13T09:13:21;9.02;;;3.70;;
40122;SDS011;25832;45.490;4.912;2022-09-13T09:15:52;3.55;;;2.97;;
40122;SDS011;25832;45.490;4.912;2022-09-13T09:18:22;7.30;;;4.18;;
40122;SDS011;25832;45.490;4.912;2022-09-13T09:20:52;5.63;;;3.55;;
40122;SDS011;25832;45.490;4.912;2022-09-13T09:23:25;7.53;;;3.38;;
40122;SDS011;25832;45.490;4.912;2022-09-13T09:26:08;7.07;;;3.40;;
40122;SDS011;25832;45.490;4.912;2022-09-13T09:28:49;5.55;;;3.20;;
40122;SDS011;25832;45.490;4.912;2022-09-13T09:31:47;3.90;;;3.08;;
40122;SDS011;25832;45.490;4.912;2022-09-13T09:34:38;3.22;;;2.88;;
40122;SDS011;25832;45.490;4.912;2022-09-13T09:39:45;3.55;;;2.65;;
40122;SDS011;25832;45.490;4.912;2022-09-13T09:42:13;3.50;;;2.90;;
40122;SDS011;25832;45.490;4.912;2022-09-13T09:47:24;6.85;;;2.95;;
40122;SDS011;25832;45.490;4.912;2022-09-13T09:58:12;6.20;;;2.92;;
40122;SDS011;25832;45.490;4.912;2022-09-13T10:00:52;8.55;;;2.63;;
40122;SDS011;25832;45.490;4.912;2022-09-13T10:03:23;4.72;;;2.50;;
40122;SDS011;25832;45.490;4.912;2022-09-13T10:06:03;7.53;;;3.03;;
40122;SDS011;25832;45.490;4.912;2022-09-13T10:08:35;5.13;;;2.63;;
40122;SDS011;25832;45.490;4.912;2022-09-13T10:11:02;3.55;;;2.63;;
40122;SDS011;25832;45.490;4.912;2022-09-13T10:13:30;5.03;;;2.60;;
40122;SDS011;25832;45.490;4.912;2022-09-13T10:16:06;2.85;;;2.47;;
40122;SDS011;25832;45.490;4.912;2022-09-13T10:18:53;4.05;;;2.67;;
40122;SDS011;25832;45.490;4.912;2022-09-13T10:21:24;6.85;;;2.83;;
40122;SDS011;25832;45.490;4.912;2022-09-13T10:23:51;4.18;;;2.75;;
40122;SDS011;25832;45.490;4.912;2022-09-13T10:26:32;5.60;;;2.50;;
40122;SDS011;25832;45.490;4.912;2022-09-13T10:29:05;9.00;;;3.22;;
40122;SDS011;25832;45.490;4.912;2022-09-13T10:31:40;5.55;;;3.08;;
40122;SDS011;25832;45.490;4.912;2022-09-13T10:34:13;7.15;;;3.10;;
40122;SDS011;25832;45.490;4.912;2022-09-13T10:39:30;4.03;;;2.70;;
40122;SDS011;25832;45.490;4.912;2022-09-13T10:46:54;5.57;;;2.67;;
40122;SDS011;25832;45.490;4.912;2022-09-13T10:49:37;7.93;;;2.85;;
40122;SDS011;25832;45.490;4.912;2022-09-13T10:52:21;5.72;;;3.00;;
40122;SDS011;25832;45.490;4.912;2022-09-13T10:54:53;4.93;;;2.38;;
40122;SDS011;25832;45.490;4.912;2022-09-13T10:57:32;7.43;;;3.03;;
40122;SDS011;25832;45.490;4.912;2022-09-13T11:00:00;3.15;;;2.35;;
40122;SDS011;25832;45.490;4.912;2022-09-13T11:05:23;2.90;;;2.15;;
40122;SDS011;25832;45.490;4.912;2022-09-13T11:08:00;4.38;;;3.10;;
40122;SDS011;25832;45.490;4.912;2022-09-13T11:10:53;6.07;;;2.60;;
40122;SDS011;25832;45.490;4.912;2022-09-13T11:15:59;2.80;;;2.25;;
40122;SDS011;25832;45.490;4.912;2022-09-13T11:40:58;6.82;;;2.83;;
40122;SDS011;25832;45.490;4.912;2022-09-13T11:47:44;5.97;;;2.88;;
40122;SDS011;25832;45.490;4.912;2022-09-13T11:50:20;4.03;;;2.30;;
40122;SDS011;25832;45.490;4.912;2022-09-13T11:55:31;2.90;;;2.40;;
40122;SDS011;25832;45.490;4.912;2022-09-13T11:58:02;4.03;;;2.33;;
40122;SDS011;25832;45.490;4.912;2022-09-13T12:00:46;4.20;;;2.33;;
40122;SDS011;25832;45.490;4.912;2022-09-13T12:03:24;4.85;;;2.72;;
40122;SDS011;25832;45.490;4.912;2022-09-13T12:08:55;5.45;;;2.40;;
40122;SDS011;25832;45.490;4.912;2022-09-13T12:11:26;5.25;;;2.17;;
40122;SDS011;25832;45.490;4.912;2022-09-13T12:14:03;5.68;;;2.35;;
40122;SDS011;25832;45.490;4.912;2022-09-13T12:16:48;5.57;;;2.50;;
40122;SDS011;25832;45.490;4.912;2022-09-13T12:19:58;5.00;;;2.90;;
40122;SDS011;25832;45.490;4.912;2022-09-13T12:22:10;8.48;;;2.80;;
40122;SDS011;25832;45.490;4.912;2022-09-13T12:30:15;7.63;;;2.40;;
40122;SDS011;25832;45.490;4.912;2022-09-13T12:32:42;6.80;;;3.38;;
40122;SDS011;25832;45.490;4.912;2022-09-13T12:40:54;4.93;;;3.05;;
40122;SDS011;25832;45.490;4.912;2022-09-13T12:46:24;4.97;;;2.83;;
40122;SDS011;25832;45.490;4.912;2022-09-13T12:54:22;3.42;;;2.22;;
40122;SDS011;25832;45.490;4.912;2022-09-13T12:57:07;6.85;;;2.65;;
40122;SDS011;25832;45.490;4.912;2022-09-13T12:59:48;5.20;;;2.88;;
40122;SDS011;25832;45.490;4.912;2022-09-13T13:10:41;6.32;;;2.72;;
40122;SDS011;25832;45.490;4.912;2022-09-13T13:21:20;5.63;;;2.63;;
40122;SDS011;25832;45.490;4.912;2022-09-13T13:23:47;4.32;;;2.47;;
40122;SDS011;25832;45.490;4.912;2022-09-13T13:26:44;9.73;;;2.80;;
40122;SDS011;25832;45.490;4.912;2022-09-13T13:29:18;4.32;;;2.85;;
40122;SDS011;25832;45.490;4.912;2022-09-13T13:34:27;7.35;;;2.60;;
40122;SDS011;25832;45.490;4.912;2022-09-13T14:19:17;6.30;;;3.15;;
40122;SDS011;25832;45.490;4.912;2022-09-13T14:24:37;3.05;;;2.35;;
40122;SDS011;25832;45.490;4.912;2022-09-13T14:27:09;3.00;;;2.47;;
40122;SDS011;25832;45.490;4.912;2022-09-13T14:30:03;3.15;;;2.40;;
40122;SDS011;25832;45.490;4.912;2022-09-13T14:32:42;4.57;;;2.23;;
40122;SDS011;25832;45.490;4.912;2022-09-13T14:35:23;5.57;;;2.58;;
40122;SDS011;25832;45.490;4.912;2022-09-13T14:37:49;5.50;;;2.40;;
40122;SDS011;25832;45.490;4.912;2022-09-13T14:40:23;5.40;;;2.55;;
40122;SDS011;25832;45.490;4.912;2022-09-13T14:42:53;7.63;;;3.00;;
40122;SDS011;25832;45.490;4.912;2022-09-13T14:45:26;5.05;;;2.47;;
40122;SDS011;25832;45.490;4.912;2022-09-13T14:47:57;4.03;;;2.47;;
40122;SDS011;25832;45.490;4.912;2022-09-13T14:50:25;6.45;;;2.50;;
40122;SDS011;25832;45.490;4.912;2022-09-13T14:53:00;3.50;;;2.47;;
40122;SDS011;25832;45.490;4.912;2022-09-13T14:55:35;4.65;;;2.20;;
40122;SDS011;25832;45.490;4.912;2022-09-13T14:58:24;4.50;;;2.55;;
40122;SDS011;25832;45.490;4.912;2022-09-13T15:00:57;5.05;;;2.60;;
40122;SDS011;25832;45.490;4.912;2022-09-13T15:03:25;5.88;;;3.10;;
40122;SDS011;25832;45.490;4.912;2022-09-13T15:05:54;5.28;;;2.53;;
40122;SDS011;25832;45.490;4.912;2022-09-13T15:10:57;2.38;;;2.17;;
40122;SDS011;25832;45.490;4.912;2022-09-13T15:13:24;3.05;;;2.40;;
40122;SDS011;25832;45.490;4.912;2022-09-13T15:15:50;9.18;;;2.40;;
40122;SDS011;25832;45.490;4.912;2022-09-13T15:23:37;2.83;;;2.58;;
40122;SDS011;25832;45.490;4.912;2022-09-13T15:28:49;5.85;;;2.35;;
40122;SDS011;25832;45.490;4.912;2022-09-13T15:31:27;6.05;;;2.60;;
40122;SDS011;25832;45.490;4.912;2022-09-13T15:34:10;5.45;;;2.55;;
40122;SDS011;25832;45.490;4.912;2022-09-13T15:36:37;5.03;;;2.60;;
40122;SDS011;25832;45.490;4.912;2022-09-13T15:41:33;3.40;;;2.30;;
40122;SDS011;25832;45.490;4.912;2022-09-13T15:44:01;4.97;;;2.13;;
40122;SDS011;25832;45.490;4.912;2022-09-13T15:46:28;2.88;;;2.28;;
40122;SDS011;25832;45.490;4.912;2022-09-13T15:48:55;2.60;;;2.30;;
40122;SDS011;25832;45.490;4.912;2022-09-13T15:51:26;6.88;;;2.72;;
40122;SDS011;25832;45.490;4.912;2022-09-13T15:53:52;4.53;;;2.70;;
40122;SDS011;25832;45.490;4.912;2022-09-13T15:56:31;4.38;;;2.40;;
40122;SDS011;25832;45.490;4.912;2022-09-13T15:58:58;4.10;;;2.53;;
40122;SDS011;25832;45.490;4.912;2022-09-13T16:01:24;6.05;;;2.83;;
40122;SDS011;25832;45.490;4.912;2022-09-13T16:03:51;3.42;;;2.38;;
40122;SDS011;25832;45.490;4.912;2022-09-13T16:06:17;7.22;;;2.65;;
40122;SDS011;25832;45.490;4.912;2022-09-13T16:08:43;3.67;;;2.50;;
40122;SDS011;25832;45.490;4.912;2022-09-13T16:11:08;3.90;;;3.15;;
40122;SDS011;25832;45.490;4.912;2022-09-13T16:13:34;6.22;;;3.10;;
40122;SDS011;25832;45.490;4.912;2022-09-13T16:16:00;3.10;;;2.80;;
40122;SDS011;25832;45.490;4.912;2022-09-13T16:18:26;3.90;;;2.40;;
40122;SDS011;25832;45.490;4.912;2022-09-13T16:20:52;4.50;;;2.92;;
40122;SDS011;25832;45.490;4.912;2022-09-13T16:23:18;3.53;;;2.22;;
40122;SDS011;25832;45.490;4.912;2022-09-13T16:25:43;6.32;;;2.80;;
40122;SDS011;25832;45.490;4.912;2022-09-13T16:28:16;3.72;;;2.53;;
40122;SDS011;25832;45.490;4.912;2022-09-13T16:30:45;3.22;;;2.40;;
40122;SDS011;25832;45.490;4.912;2022-09-13T16:33:11;6.22;;;2.22;;
40122;SDS011;25832;45.490;4.912;2022-09-13T16:35:37;5.75;;;2.67;;
40122;SDS011;25832;45.490;4.912;2022-09-13T16:38:02;6.28;;;3.25;;
40122;SDS011;25832;45.490;4.912;2022-09-13T16:40:28;6.53;;;2.55;;
40122;SDS011;25832;45.490;4.912;2022-09-13T16:42:54;5.90;;;2.95;;
40122;SDS011;25832;45.490;4.912;2022-09-13T16:45:19;4.53;;;2.42;;
40122;SDS011;25832;45.490;4.912;2022-09-13T16:47:45;4.88;;;2.60;;
40122;SDS011;25832;45.490;4.912;2022-09-13T16:50:11;3.83;;;2.30;;
40122;SDS011;25832;45.490;4.912;2022-09-13T16:52:37;4.13;;;3.08;;
40122;SDS011;25832;45.490;4.912;2022-09-13T16:55:03;3.38;;;2.42;;
40122;SDS011;25832;45.490;4.912;2022-09-13T16:57:29;6.25;;;3.47;;
40122;SDS011;25832;45.490;4.912;2022-09-13T16:59:55;5.68;;;2.72;;
40122;SDS011;25832;45.490;4.912;2022-09-13T17:02:23;5.25;;;2.63;;
40122;SDS011;25832;45.490;4.912;2022-09-13T17:04:52;3.20;;;2.90;;
40122;SDS011;25832;45.490;4.912;2022-09-13T17:07:17;4.80;;;2.65;;
40122;SDS011;25832;45.490;4.912;2022-09-13T17:09:43;3.42;;;3.00;;
40122;SDS011;25832;45.490;4.912;2022-09-13T17:12:10;3.25;;;2.45;;
40122;SDS011;25832;45.490;4.912;2022-09-13T17:14:38;4.63;;;2.50;;
40122;SDS011;25832;45.490;4.912;2022-09-13T17:17:06;4.25;;;2.72;;
40122;SDS011;25832;45.490;4.912;2022-09-13T17:19:33;3.25;;;2.83;;
40122;SDS011;25832;45.490;4.912;2022-09-13T17:22:00;5.93;;;2.75;;
40122;SDS011;25832;45.490;4.912;2022-09-13T17:24:28;2.65;;;2.42;;
40122;SDS011;25832;45.490;4.912;2022-09-13T17:26:55;8.00;;;3.10;;
40122;SDS011;25832;45.490;4.912;2022-09-13T17:29:22;5.15;;;2.97;;
40122;SDS011;25832;45.490;4.912;2022-09-13T17:31:55;5.22;;;2.80;;
40122;SDS011;25832;45.490;4.912;2022-09-13T17:34:21;5.50;;;2.70;;
40122;SDS011;25832;45.490;4.912;2022-09-13T17:36:47;2.60;;;2.00;;
40122;SDS011;25832;45.490;4.912;2022-09-13T17:39:13;2.88;;;2.50;;
40122;SDS011;25832;45.490;4.912;2022-09-13T17:41:38;6.30;;;2.70;;
40122;SDS011;25832;45.490;4.912;2022-09-13T17:44:04;4.70;;;2.40;;
40122;SDS011;25832;45.490;4.912;2022-09-13T17:46:30;3.10;;;2.80;;
40122;SDS011;25832;45.490;4.912;2022-09-13T17:48:57;2.92;;;2.25;;
40122;SDS011;25832;45.490;4.912;2022-09-13T17:51:24;3.13;;;2.45;;
40122;SDS011;25832;45.490;4.912;2022-09-13T17:53:55;5.38;;;2.90;;
40122;SDS011;25832;45.490;4.912;2022-09-13T17:56:43;5.60;;;2.78;;
40122;SDS011;25832;45.490;4.912;2022-09-13T17:59:12;3.72;;;2.70;;
40122;SDS011;25832;45.490;4.912;2022-09-13T18:01:41;4.80;;;2.55;;
40122;SDS011;25832;45.490;4.912;2022-09-13T18:04:12;4.30;;;2.30;;
40122;SDS011;25832;45.490;4.912;2022-09-13T18:06:39;4.72;;;2.80;;
40122;SDS011;25832;45.490;4.912;2022-09-13T18:09:06;6.35;;;2.53;;
40122;SDS011;25832;45.490;4.912;2022-09-13T18:11:36;3.55;;;2.65;;
40122;SDS011;25832;45.490;4.912;2022-09-13T18:14:03;7.20;;;3.00;;
40122;SDS011;25832;45.490;4.912;2022-09-13T18:16:29;6.28;;;3.08;;
40122;SDS011;25832;45.490;4.912;2022-09-13T18:18:55;3.35;;;2.65;;
40122;SDS011;25832;45.490;4.912;2022-09-13T18:21:22;4.10;;;2.70;;
40122;SDS011;25832;45.490;4.912;2022-09-13T18:23:50;3.55;;;2.50;;
40122;SDS011;25832;45.490;4.912;2022-09-13T18:26:18;3.08;;;2.55;;
40122;SDS011;25832;45.490;4.912;2022-09-13T18:28:45;4.65;;;2.83;;
40122;SDS011;25832;45.490;4.912;2022-09-13T18:31:16;8.02;;;2.58;;
40122;SDS011;25832;45.490;4.912;2022-09-13T18:33:42;3.58;;;2.45;;
40122;SDS011;25832;45.490;4.912;2022-09-13T18:36:10;6.30;;;2.85;;
40122;SDS011;25832;45.490;4.912;2022-09-13T18:38:41;3.55;;;2.90;;
40122;SDS011;25832;45.490;4.912;2022-09-13T18:41:10;5.90;;;3.03;;
40122;SDS011;25832;45.490;4.912;2022-09-13T18:43:38;6.50;;;2.60;;
40122;SDS011;25832;45.490;4.912;2022-09-13T18:46:05;8.63;;;3.00;;